Roberts Field
KRDM : now visible

Airfield :











YOU CAN JOIN US ON...

 
LOGIN :

Register | Disclaimer

   EN    FR    IT 

 









Legend :    VFR   Marginal VFR   IFR   Intensive IFR   Very Intensive IFR
Visi :
Ceiling :
>= 8 km
>= 3000ft
5 to 8 km
1000 to 3000 ft
1500m to 5 km
500 to 1000 ft
800 to 1500m
200 to 500 ft
< 800m
< 200 ft
Symbols :   Thunderstorms  Fog  Heavy snow  Heavy precipitations  Wind > 20 kt






- Airport Elevation : 3080 ft
- IATA code : RDM


KRDM - Roberts Field

CURRENT METAR :
  • 220056Z 23010KT 10SM CLR 06/M04 A2989 RMK AO2 SLP124 T00561044

EXPIRED METARs :
  • 212356Z 23016G22KT 10SM FEW060 FEW070 07/M04 A2986 RMK AO2 WSHFT 2326 SLP112 T00721039 10089 20044 53013
  • 212256Z 20009KT 10SM SCT055 OVC070 09/M02 A2984 RMK AO2 SLP105 T00891022

TAF KRDM
Valid from the 22 at 00:00 until the 23 at 00:00 UTC


212351Z 2200/2224 23010G20KT P6SM FEW050 SCT070
FM220500 19008KT P6SM BKN100
FM221300 16008KT 6SM -RA OVC050
PROB30 2213/2216 -SN



MET'MAP, your aeronautical weather chart ! - Copyright ORBIFLY December 2007 - Disclaimer

ORBIFLY MET'MAP TEAM :

Programming & Development : Alexandra Zaïnal
Concept & original design : Baudouin d'Aumeries
Assistance for programming : Marc-Olivier Méhu
Technical & hardware support : Manuel Goepfert

Contact : metmap@orbifly.com




SOURCES & CREDITS :

   NOAA       Earth
Advisory